createdAt,value
2022-07-31T00:02:30.323Z,25.50
2022-07-31T00:05:19.694Z,25.47
2022-07-31T00:08:09.469Z,25.46
2022-07-31T00:10:58.437Z,25.43
2022-07-31T00:13:57.236Z,25.40
2022-07-31T00:16:47.242Z,25.37
2022-07-31T00:19:37.194Z,25.33
2022-07-31T00:22:25.747Z,25.29
2022-07-31T00:25:15.730Z,25.23
2022-07-31T00:28:05.094Z,25.14
2022-07-31T00:30:53.867Z,25.04
2022-07-31T00:33:48.343Z,24.99
2022-07-31T00:36:37.129Z,24.95
2022-07-31T00:39:27.954Z,24.94
2022-07-31T00:42:21.723Z,24.93
2022-07-31T00:45:13.980Z,24.90
2022-07-31T00:48:03.635Z,24.90
2022-07-31T00:50:53.118Z,24.88
2022-07-31T00:53:41.713Z,24.88
2022-07-31T00:56:31.153Z,24.86
2022-07-31T00:59:24.844Z,24.84
2022-07-31T01:02:14.738Z,24.85
2022-07-31T01:05:06.570Z,24.82
2022-07-31T01:07:54.910Z,24.80
2022-07-31T01:10:53.838Z,24.78
2022-07-31T01:13:48.422Z,24.77
2022-07-31T01:16:41.252Z,24.74
2022-07-31T01:19:39.694Z,24.74
2022-07-31T01:22:56.444Z,24.71
2022-07-31T01:26:04.241Z,24.69
2022-07-31T01:29:10.023Z,24.67
2022-07-31T01:32:03.891Z,24.67
2022-07-31T01:34:55.595Z,24.63
2022-07-31T01:37:50.473Z,24.59
2022-07-31T01:40:45.378Z,24.53
2022-07-31T01:43:39.419Z,24.50
2022-07-31T01:46:30.900Z,24.45
2022-07-31T01:49:28.280Z,24.40
2022-07-31T01:52:17.723Z,24.34
2022-07-31T01:55:10.209Z,24.32
2022-07-31T01:58:01.788Z,24.28
2022-07-31T02:00:56.266Z,24.25
2022-07-31T02:03:51.325Z,24.22
2022-07-31T02:06:41.669Z,24.19
2022-07-31T02:09:33.507Z,24.15
2022-07-31T02:12:33.757Z,24.11
2022-07-31T02:15:24.834Z,24.08
2022-07-31T02:18:15.297Z,24.04
2022-07-31T02:21:24.669Z,24.01
2022-07-31T02:24:14.102Z,23.97
2022-07-31T02:27:04.801Z,23.92
2022-07-31T02:30:16.050Z,23.87
2022-07-31T02:33:06.318Z,23.83
2022-07-31T02:35:58.810Z,23.79
2022-07-31T02:38:49.764Z,23.76
2022-07-31T02:41:39.796Z,23.71
2022-07-31T02:44:34.110Z,23.67
2022-07-31T02:47:24.223Z,23.63
2022-07-31T02:50:13.388Z,23.58
2022-07-31T02:53:08.342Z,23.54
2022-07-31T02:55:58.777Z,23.53
2022-07-31T02:58:48.203Z,23.51
2022-07-31T03:01:42.948Z,23.47
2022-07-31T03:04:32.524Z,23.43
2022-07-31T03:07:21.483Z,23.40
2022-07-31T03:10:12.853Z,23.35
2022-07-31T03:13:24.654Z,23.27
2022-07-31T03:16:14.989Z,23.25
2022-07-31T03:19:06.057Z,23.21
2022-07-31T03:21:56.281Z,23.17
2022-07-31T03:24:45.352Z,23.12
2022-07-31T03:27:34.517Z,23.08
2022-07-31T03:30:25.508Z,23.02
2022-07-31T03:33:15.916Z,22.96
2022-07-31T03:36:05.499Z,22.92
2022-07-31T03:38:55.270Z,22.88
2022-07-31T03:41:55.857Z,22.85
2022-07-31T03:44:45.959Z,22.84
2022-07-31T03:47:34.848Z,22.81
2022-07-31T03:50:25.515Z,22.77
2022-07-31T03:53:14.817Z,22.76
2022-07-31T03:56:07.156Z,22.74
2022-07-31T03:58:56.842Z,22.73
2022-07-31T04:01:58.233Z,22.72
2022-07-31T04:05:03.934Z,22.72
2022-07-31T04:07:55.869Z,22.72
2022-07-31T04:10:44.623Z,22.72
2022-07-31T04:13:36.801Z,22.73
2022-07-31T04:16:25.205Z,22.70
2022-07-31T04:19:13.757Z,22.70
2022-07-31T04:22:04.483Z,22.67
2022-07-31T04:24:54.951Z,22.67
2022-07-31T04:28:06.441Z,22.67
2022-07-31T04:30:56.219Z,22.67
2022-07-31T04:33:48.767Z,22.68
2022-07-31T04:36:38.647Z,22.69
2022-07-31T04:39:27.813Z,22.70
2022-07-31T04:42:18.204Z,22.70
2022-07-31T04:45:11.418Z,22.73
2022-07-31T04:48:00.427Z,22.75
2022-07-31T04:50:49.595Z,22.77
2022-07-31T04:53:38.962Z,22.78
2022-07-31T04:56:35.567Z,22.81
2022-07-31T04:59:59.380Z,22.84
2022-07-31T05:02:35.287Z,22.85
2022-07-31T05:05:23.884Z,22.87
2022-07-31T05:08:13.768Z,22.89
2022-07-31T05:11:24.739Z,22.92
2022-07-31T05:14:14.523Z,22.92
2022-07-31T05:17:03.281Z,22.92
2022-07-31T05:20:12.794Z,22.90
2022-07-31T05:23:19.290Z,22.88
2022-07-31T05:26:40.406Z,22.88
2022-07-31T05:29:30.651Z,22.89
2022-07-31T05:32:19.552Z,22.88
2022-07-31T05:35:10.081Z,22.89
2022-07-31T05:37:59.724Z,22.90
2022-07-31T05:41:06.300Z,22.90
2022-07-31T05:44:15.532Z,22.90
2022-07-31T05:47:09.668Z,22.90
2022-07-31T05:49:59.188Z,22.91
2022-07-31T05:52:49.125Z,22.90
2022-07-31T05:55:57.384Z,22.89
2022-07-31T05:58:55.148Z,22.90
2022-07-31T06:01:44.727Z,22.89
2022-07-31T06:04:33.692Z,22.90
2022-07-31T06:07:22.442Z,22.90
2022-07-31T06:10:12.223Z,22.92
2022-07-31T06:13:00.973Z,22.95
2022-07-31T06:15:50.960Z,22.98
2022-07-31T06:18:39.713Z,22.99
2022-07-31T06:21:30.791Z,23.02
2022-07-31T06:24:19.070Z,23.04
2022-07-31T06:27:13.739Z,23.05
2022-07-31T06:30:16.646Z,23.08
2022-07-31T06:33:07.975Z,23.13
2022-07-31T06:35:57.933Z,23.15
2022-07-31T06:38:57.868Z,23.20
2022-07-31T06:41:49.898Z,23.23
2022-07-31T06:44:50.944Z,23.28
2022-07-31T06:48:17.995Z,23.34
2022-07-31T06:51:30.286Z,23.40
2022-07-31T06:54:20.284Z,23.48
2022-07-31T06:57:16.622Z,23.51
2022-07-31T07:00:20.046Z,23.58
2022-07-31T07:03:11.741Z,23.66
2022-07-31T07:06:00.503Z,23.70
2022-07-31T07:08:49.869Z,23.74
2022-07-31T07:11:40.671Z,23.81
2022-07-31T07:14:29.590Z,23.86
2022-07-31T07:17:19.616Z,23.91
2022-07-31T07:20:13.883Z,23.94
2022-07-31T07:23:03.270Z,23.98
2022-07-31T07:26:09.515Z,24.02
2022-07-31T07:28:59.299Z,24.07
2022-07-31T07:31:48.172Z,24.09
2022-07-31T07:34:37.542Z,24.12
2022-07-31T07:37:26.296Z,24.16
2022-07-31T07:40:16.441Z,24.20
2022-07-31T07:43:06.065Z,24.23
2022-07-31T07:45:54.410Z,24.28
2022-07-31T07:48:43.370Z,24.32
2022-07-31T07:51:59.215Z,24.37
2022-07-31T07:55:01.845Z,24.43
2022-07-31T07:58:12.162Z,24.51
2022-07-31T08:01:34.063Z,24.57
2022-07-31T08:04:32.159Z,24.63
2022-07-31T08:07:42.790Z,24.72
2022-07-31T08:11:07.058Z,24.84
2022-07-31T08:14:03.395Z,24.92
2022-07-31T08:16:55.226Z,24.98
2022-07-31T08:19:48.266Z,25.03
2022-07-31T08:22:41.364Z,25.12
2022-07-31T08:25:32.132Z,25.19
2022-07-31T08:28:24.183Z,25.24
2022-07-31T08:31:13.334Z,25.27
2022-07-31T08:34:12.739Z,25.33
2022-07-31T08:37:52.091Z,25.41
2022-07-31T08:40:43.032Z,25.48
2022-07-31T08:44:01.890Z,25.57
2022-07-31T08:46:42.722Z,25.74
2022-07-31T08:49:33.489Z,25.88
2022-07-31T08:52:23.880Z,26.04
2022-07-31T08:55:54.953Z,26.25
2022-07-31T08:58:28.460Z,26.50
2022-07-31T09:01:17.687Z,26.72
2022-07-31T09:04:07.202Z,26.91
2022-07-31T09:06:59.525Z,27.12
2022-07-31T09:09:51.234Z,27.35
2022-07-31T09:12:41.451Z,27.57
2022-07-31T09:15:33.892Z,27.78
2022-07-31T09:18:25.311Z,27.95
2022-07-31T09:21:25.450Z,28.11
2022-07-31T09:24:25.807Z,28.29
2022-07-31T09:27:16.862Z,28.50
2022-07-31T09:30:06.991Z,28.68
2022-07-31T09:33:16.592Z,28.86
2022-07-31T09:36:26.044Z,29.02
2022-07-31T09:39:27.001Z,29.16
2022-07-31T09:42:45.718Z,29.22
2022-07-31T09:45:48.370Z,29.32
2022-07-31T09:48:50.106Z,29.42
2022-07-31T09:51:41.706Z,29.50
2022-07-31T09:54:32.999Z,29.60
2022-07-31T09:57:22.082Z,29.63
2022-07-31T10:00:17.467Z,29.65
2022-07-31T10:03:07.993Z,29.65
2022-07-31T10:05:58.868Z,29.68
2022-07-31T10:08:51.238Z,29.70
2022-07-31T10:12:01.462Z,29.77
2022-07-31T10:14:54.123Z,29.85
2022-07-31T10:17:47.315Z,29.91
2022-07-31T10:20:58.318Z,30.05
2022-07-31T10:23:54.309Z,30.09
2022-07-31T10:27:10.842Z,30.15
2022-07-31T10:29:54.243Z,30.17
2022-07-31T10:32:44.309Z,30.21
2022-07-31T10:35:55.740Z,30.32
2022-07-31T10:39:31.166Z,30.36
2022-07-31T10:42:52.758Z,30.39
2022-07-31T10:45:49.471Z,30.43
2022-07-31T10:48:57.388Z,30.57
2022-07-31T10:52:10.976Z,30.68
2022-07-31T10:55:14.587Z,30.75
2022-07-31T10:58:19.835Z,30.75
2022-07-31T11:01:18.243Z,30.76
2022-07-31T11:04:31.463Z,30.77
2022-07-31T11:07:35.653Z,30.78
2022-07-31T11:10:28.100Z,30.72
2022-07-31T11:13:33.626Z,30.65
2022-07-31T11:16:51.894Z,30.66
2022-07-31T11:20:04.195Z,30.73
2022-07-31T11:23:01.194Z,30.73
2022-07-31T11:25:50.123Z,30.78
2022-07-31T11:28:44.681Z,30.79
2022-07-31T11:31:33.764Z,30.83
2022-07-31T11:34:22.921Z,30.84
2022-07-31T11:37:18.706Z,30.88
2022-07-31T11:40:12.216Z,30.88
2022-07-31T11:43:25.330Z,30.93
2022-07-31T11:46:12.142Z,30.94
2022-07-31T11:49:02.610Z,30.93
2022-07-31T11:51:59.984Z,30.95
2022-07-31T11:54:48.650Z,30.98
2022-07-31T11:57:50.734Z,31.00
2022-07-31T12:00:51.814Z,31.05
2022-07-31T12:03:40.925Z,31.04
2022-07-31T12:06:34.596Z,31.05
2022-07-31T12:10:02.135Z,31.10
2022-07-31T12:12:35.869Z,31.17
2022-07-31T12:15:25.438Z,31.24
2022-07-31T12:18:13.991Z,31.33
2022-07-31T12:21:04.865Z,31.39
2022-07-31T12:23:54.165Z,31.44
2022-07-31T12:26:49.723Z,31.53
2022-07-31T12:29:39.166Z,31.67
2022-07-31T12:32:28.792Z,31.76
2022-07-31T12:35:17.794Z,31.83
2022-07-31T12:38:23.998Z,31.87
2022-07-31T12:41:17.224Z,31.95
2022-07-31T12:44:14.888Z,32.05
2022-07-31T12:47:19.595Z,32.14
2022-07-31T12:50:15.430Z,32.14
2022-07-31T12:53:05.617Z,32.15
2022-07-31T12:55:54.373Z,32.11
2022-07-31T12:58:43.334Z,32.12
2022-07-31T13:01:33.285Z,32.15
2022-07-31T13:04:21.664Z,32.26
2022-07-31T13:07:10.422Z,32.33
2022-07-31T13:10:20.467Z,32.34
2022-07-31T13:13:08.987Z,32.44
2022-07-31T13:15:58.188Z,32.50
2022-07-31T13:18:46.742Z,32.53
2022-07-31T13:21:48.142Z,32.53
2022-07-31T13:24:39.202Z,32.48
2022-07-31T13:27:28.524Z,32.51
2022-07-31T13:30:17.535Z,32.58
2022-07-31T13:33:06.696Z,32.58
2022-07-31T13:35:55.864Z,32.51
2022-07-31T13:38:45.234Z,32.52
2022-07-31T13:41:35.216Z,32.56
2022-07-31T13:44:23.976Z,32.57
2022-07-31T13:47:13.499Z,32.59
2022-07-31T13:50:02.918Z,32.64
2022-07-31T13:52:52.132Z,32.65
2022-07-31T13:55:41.248Z,32.66
2022-07-31T13:58:30.005Z,32.58
2022-07-31T14:01:18.587Z,32.49
2022-07-31T14:04:10.760Z,32.41
2022-07-31T14:07:05.622Z,32.36
2022-07-31T14:09:55.500Z,32.37
2022-07-31T14:12:44.639Z,32.32
2022-07-31T14:15:34.004Z,32.33
2022-07-31T14:18:22.968Z,32.27
2022-07-31T14:21:12.132Z,32.19
2022-07-31T14:24:07.582Z,32.14
2022-07-31T14:26:56.401Z,31.94
2022-07-31T14:29:46.388Z,31.20
2022-07-31T14:32:34.733Z,30.48
2022-07-31T14:35:23.692Z,29.84
2022-07-31T14:38:13.063Z,29.24
2022-07-31T14:41:16.358Z,28.79
2022-07-31T14:44:05.933Z,28.42
2022-07-31T14:46:54.689Z,27.89
2022-07-31T14:50:06.819Z,27.55
2022-07-31T14:52:52.271Z,26.95
2022-07-31T14:55:41.231Z,26.67
2022-07-31T14:58:30.190Z,26.45
2022-07-31T15:01:19.036Z,26.21
2022-07-31T15:04:08.727Z,26.05
2022-07-31T15:07:18.710Z,25.98
2022-07-31T15:10:11.750Z,25.93
2022-07-31T15:13:01.619Z,25.85
2022-07-31T15:15:50.781Z,25.72
2022-07-31T15:18:39.534Z,25.59
2022-07-31T15:21:28.650Z,25.48
2022-07-31T15:24:17.457Z,25.41
2022-07-31T15:27:06.921Z,25.28
2022-07-31T15:30:05.764Z,25.11
2022-07-31T15:32:56.424Z,25.01
2022-07-31T15:35:46.801Z,25.01
2022-07-31T15:38:38.887Z,24.90
2022-07-31T15:41:28.625Z,24.84
2022-07-31T15:44:17.379Z,24.82
2022-07-31T15:47:06.737Z,24.83
2022-07-31T15:49:56.122Z,24.89
2022-07-31T15:52:45.234Z,24.92
2022-07-31T15:55:34.449Z,24.90
2022-07-31T15:58:23.016Z,24.98
2022-07-31T16:01:12.446Z,25.05
2022-07-31T16:04:01.334Z,25.05
2022-07-31T16:06:50.558Z,25.02
2022-07-31T16:10:03.714Z,25.03
2022-07-31T16:12:48.895Z,25.05
2022-07-31T16:15:38.074Z,25.05
2022-07-31T16:18:27.634Z,25.08
2022-07-31T16:21:16.390Z,25.09
2022-07-31T16:24:06.376Z,25.07
2022-07-31T16:26:54.729Z,25.03
2022-07-31T16:29:59.643Z,24.98
2022-07-31T16:32:51.687Z,24.96
2022-07-31T16:35:40.853Z,24.91
2022-07-31T16:38:30.997Z,24.90
2022-07-31T16:41:19.591Z,24.87
2022-07-31T16:44:08.551Z,24.85
2022-07-31T16:46:56.701Z,24.81
2022-07-31T16:49:45.489Z,24.82
2022-07-31T16:52:33.998Z,24.79
2022-07-31T16:55:55.774Z,24.78
2022-07-31T16:58:32.396Z,24.77
2022-07-31T17:01:53.997Z,24.75
2022-07-31T17:04:31.310Z,24.72
2022-07-31T17:07:20.784Z,24.70
2022-07-31T17:10:11.355Z,24.70
2022-07-31T17:13:00.546Z,24.66
2022-07-31T17:15:49.507Z,24.64
2022-07-31T17:18:38.670Z,24.59
2022-07-31T17:21:30.858Z,24.54
2022-07-31T17:24:20.893Z,24.50
2022-07-31T17:27:11.240Z,24.46
2022-07-31T17:30:00.410Z,24.46
2022-07-31T17:32:49.615Z,24.42
2022-07-31T17:35:38.164Z,24.36
2022-07-31T17:38:27.125Z,24.27
2022-07-31T17:41:25.206Z,24.21
2022-07-31T17:44:15.534Z,24.16
2022-07-31T17:47:05.285Z,24.12
2022-07-31T17:49:55.056Z,24.10
2022-07-31T17:52:44.830Z,24.06
2022-07-31T17:55:34.097Z,24.02
2022-07-31T17:58:22.954Z,24.00
2022-07-31T18:01:11.506Z,23.92
2022-07-31T18:04:00.874Z,23.88
2022-07-31T18:06:54.463Z,23.85
2022-07-31T18:09:43.717Z,23.82
2022-07-31T18:12:56.863Z,23.79
2022-07-31T18:15:42.318Z,23.74
2022-07-31T18:18:31.276Z,23.70
2022-07-31T18:21:20.233Z,23.67
2022-07-31T18:24:10.219Z,23.64
2022-07-31T18:26:58.494Z,23.58
2022-07-31T18:29:55.809Z,23.54
2022-07-31T18:32:45.705Z,23.51
2022-07-31T18:35:34.456Z,23.46
2022-07-31T18:38:22.801Z,23.43
2022-07-31T18:41:11.609Z,23.38
2022-07-31T18:44:01.542Z,23.33
2022-07-31T18:46:52.792Z,23.28
2022-07-31T18:51:02.047Z,23.24
2022-07-31T18:52:51.155Z,23.20
2022-07-31T18:55:39.906Z,23.14
2022-07-31T18:58:30.508Z,23.10
2022-07-31T19:01:19.344Z,23.06
2022-07-31T19:04:08.992Z,23.03
2022-07-31T19:06:58.002Z,22.97
2022-07-31T19:09:46.557Z,22.93
2022-07-31T19:12:35.515Z,22.91
2022-07-31T19:15:25.094Z,22.86
2022-07-31T19:18:14.183Z,22.83
2022-07-31T19:21:21.339Z,22.79
2022-07-31T19:24:12.657Z,22.75
2022-07-31T19:27:01.616Z,22.70
2022-07-31T19:29:50.783Z,22.67
2022-07-31T19:32:40.566Z,22.62
2022-07-31T19:35:29.520Z,22.57
2022-07-31T19:38:18.683Z,22.53
2022-07-31T19:41:08.261Z,22.49
2022-07-31T19:43:56.808Z,22.47
2022-07-31T19:46:45.767Z,22.41
2022-07-31T19:49:37.917Z,22.37
2022-07-31T19:52:26.770Z,22.33
2022-07-31T19:55:17.158Z,22.30
2022-07-31T19:58:06.320Z,22.25
2022-07-31T20:00:55.075Z,22.22
2022-07-31T20:03:44.509Z,22.18
2022-07-31T20:06:33.403Z,22.13
2022-07-31T20:09:22.363Z,22.11
2022-07-31T20:12:13.112Z,22.08
2022-07-31T20:15:01.515Z,22.05
2022-07-31T20:17:50.884Z,22.01
2022-07-31T20:20:41.088Z,21.97
2022-07-31T20:23:33.558Z,21.93
2022-07-31T20:26:24.078Z,21.90
2022-07-31T20:29:13.073Z,21.84
2022-07-31T20:32:01.876Z,21.80
2022-07-31T20:34:52.221Z,21.78
2022-07-31T20:37:40.978Z,21.76
2022-07-31T20:40:30.140Z,21.74
2022-07-31T20:43:20.222Z,21.73
2022-07-31T20:46:11.267Z,21.73
2022-07-31T20:49:00.784Z,21.71
2022-07-31T20:51:51.632Z,21.71
2022-07-31T20:54:40.471Z,21.72
2022-07-31T20:57:28.746Z,21.70
2022-07-31T21:00:19.681Z,21.69
2022-07-31T21:03:09.337Z,21.69
2022-07-31T21:05:57.950Z,21.69
2022-07-31T21:08:46.500Z,21.69
2022-07-31T21:11:35.667Z,21.68
2022-07-31T21:14:24.219Z,21.66
2022-07-31T21:17:12.970Z,21.65
2022-07-31T21:20:06.677Z,21.66
2022-07-31T21:22:56.013Z,21.66
2022-07-31T21:25:46.406Z,21.67
2022-07-31T21:28:38.984Z,21.68
2022-07-31T21:31:29.538Z,21.69
2022-07-31T21:34:19.709Z,21.72
2022-07-31T21:37:09.774Z,21.71
2022-07-31T21:40:09.358Z,21.68
2022-07-31T21:43:01.100Z,21.63
2022-07-31T21:45:57.869Z,21.53
2022-07-31T21:48:52.644Z,21.46
2022-07-31T21:51:44.384Z,21.41
2022-07-31T21:54:33.691Z,21.33
2022-07-31T21:57:22.501Z,21.31
2022-07-31T22:00:15.891Z,21.33
2022-07-31T22:03:06.098Z,21.35
2022-07-31T22:06:13.901Z,21.36
2022-07-31T22:09:02.658Z,21.32
2022-07-31T22:12:01.327Z,21.24
2022-07-31T22:14:51.841Z,21.17
2022-07-31T22:17:41.213Z,21.09
2022-07-31T22:20:30.952Z,21.02
2022-07-31T22:23:20.479Z,20.96
2022-07-31T22:26:10.817Z,20.92
2022-07-31T22:29:01.000Z,20.89
2022-07-31T22:31:53.293Z,20.85
2022-07-31T22:34:43.370Z,20.80
2022-07-31T22:37:32.284Z,20.80
2022-07-31T22:40:22.273Z,20.79
2022-07-31T22:44:11.175Z,20.80
2022-07-31T22:46:21.122Z,20.83
2022-07-31T22:49:11.392Z,20.84
2022-07-31T22:52:00.680Z,20.85
2022-07-31T22:54:49.639Z,20.81
2022-07-31T22:57:40.491Z,20.79
2022-07-31T23:00:29.206Z,20.79
2022-07-31T23:03:18.366Z,20.79
2022-07-31T23:06:31.188Z,20.76
2022-07-31T23:09:18.230Z,20.73
2022-07-31T23:12:09.882Z,20.72
2022-07-31T23:14:58.779Z,20.73
2022-07-31T23:17:47.328Z,20.73
2022-07-31T23:20:36.495Z,20.74
2022-07-31T23:23:25.224Z,20.75
2022-07-31T23:26:14.210Z,20.75
2022-07-31T23:29:03.376Z,20.76
2022-07-31T23:31:52.130Z,20.77
2022-07-31T23:34:40.888Z,20.78
2022-07-31T23:37:29.661Z,20.77
2022-07-31T23:40:19.011Z,20.77
2022-07-31T23:43:07.921Z,20.77
2022-07-31T23:45:56.316Z,20.76
2022-07-31T23:48:45.484Z,20.74
2022-07-31T23:51:34.399Z,20.74
2022-07-31T23:54:24.226Z,20.75
2022-07-31T23:57:12.771Z,20.74
